createdAt,value
2019-05-25T00:01:15.949Z,27.97
2019-05-25T00:03:46.223Z,27.37
2019-05-25T00:06:16.582Z,24.40
2019-05-25T00:08:47.083Z,28.93
2019-05-25T00:11:17.621Z,25.33
2019-05-25T00:13:47.997Z,25.63
2019-05-25T00:16:18.381Z,21.93
2019-05-25T00:18:48.665Z,25.57
2019-05-25T00:21:19.021Z,19.67
2019-05-25T00:23:49.389Z,26.57
2019-05-25T00:26:19.801Z,17.47
2019-05-25T00:28:50.315Z,19.80
2019-05-25T00:31:20.738Z,21.37
2019-05-25T00:33:52.369Z,22.00
2019-05-25T00:36:22.800Z,20.07
2019-05-25T00:38:53.199Z,21.43
2019-05-25T00:41:23.561Z,18.37
2019-05-25T00:43:53.903Z,24.00
2019-05-25T00:46:24.393Z,16.53
2019-05-25T00:48:54.745Z,19.13
2019-05-25T00:51:25.072Z,22.10
2019-05-25T00:53:55.474Z,17.07
2019-05-25T00:56:26.154Z,15.50
2019-05-25T00:58:56.499Z,21.17
2019-05-25T01:01:26.795Z,18.50
2019-05-25T01:03:57.202Z,19.97
2019-05-25T01:06:27.529Z,19.20
2019-05-25T01:08:57.937Z,27.30
2019-05-25T01:11:28.325Z,20.97
2019-05-25T01:13:59.083Z,23.23
2019-05-25T01:16:29.486Z,19.87
2019-05-25T01:18:59.833Z,18.03
2019-05-25T01:21:32.079Z,17.83
2019-05-25T01:24:02.561Z,17.00
2019-05-25T01:26:33.083Z,17.03
2019-05-25T01:29:03.462Z,17.00
2019-05-25T01:31:33.831Z,18.70
2019-05-25T01:34:04.264Z,18.90
2019-05-25T01:36:34.661Z,20.43
2019-05-25T01:39:07.067Z,14.33
2019-05-25T01:41:37.636Z,18.27
2019-05-25T01:44:07.971Z,15.87
2019-05-25T01:46:38.360Z,18.27
2019-05-25T01:49:09.992Z,15.47
2019-05-25T01:51:40.389Z,16.17
2019-05-25T01:54:10.719Z,13.87
2019-05-25T01:56:41.094Z,15.53
2019-05-25T01:59:11.459Z,14.70
2019-05-25T02:01:41.883Z,15.07
2019-05-25T02:04:12.313Z,15.53
2019-05-25T02:06:42.583Z,22.03
2019-05-25T02:09:12.931Z,16.33
2019-05-25T02:11:43.320Z,15.73
2019-05-25T02:14:14.779Z,16.87
2019-05-25T02:16:45.154Z,17.87
2019-05-25T02:19:16.637Z,18.87
2019-05-25T02:21:47.032Z,15.73
2019-05-25T02:24:17.271Z,17.10
2019-05-25T02:26:47.678Z,17.33
2019-05-25T02:29:18.021Z,22.80
2019-05-25T02:31:48.352Z,19.77
2019-05-25T02:34:18.775Z,24.93
2019-05-25T02:36:49.475Z,21.43
2019-05-25T02:39:19.799Z,26.33
2019-05-25T02:41:50.239Z,24.00
2019-05-25T02:44:20.680Z,27.33
2019-05-25T02:46:51.071Z,25.37
2019-05-25T02:49:22.064Z,28.50
2019-05-25T02:51:52.609Z,31.97
2019-05-25T02:54:22.939Z,27.43
2019-05-25T02:56:53.310Z,26.27
2019-05-25T02:59:23.668Z,29.27
2019-05-25T03:01:54.364Z,31.27
2019-05-25T03:04:24.905Z,29.73
2019-05-25T03:06:56.077Z,30.67
2019-05-25T03:09:28.505Z,31.97
2019-05-25T03:12:00.730Z,27.93
2019-05-25T03:14:31.103Z,28.43
2019-05-25T03:17:01.570Z,30.47
2019-05-25T03:19:31.937Z,33.23
2019-05-25T03:22:02.295Z,35.47
2019-05-25T03:24:32.618Z,31.07
2019-05-25T03:27:03.451Z,30.47
2019-05-25T03:29:33.795Z,29.60
2019-05-25T03:32:04.090Z,32.03
2019-05-25T03:34:34.400Z,31.27
2019-05-25T03:37:04.687Z,29.53
2019-05-25T03:39:35.042Z,26.10
2019-05-25T03:42:09.160Z,29.27
2019-05-25T03:44:39.513Z,32.13
2019-05-25T03:47:09.927Z,30.20
2019-05-25T03:49:40.367Z,27.17
2019-05-25T03:52:10.762Z,32.03
2019-05-25T03:54:41.141Z,26.73
2019-05-25T03:57:11.509Z,25.57
2019-05-25T03:59:41.891Z,31.53
2019-05-25T04:02:12.320Z,33.67
2019-05-25T04:04:42.889Z,26.33
2019-05-25T04:07:13.282Z,28.53
2019-05-25T04:09:43.599Z,26.70
2019-05-25T04:12:13.987Z,28.30
2019-05-25T04:14:44.296Z,27.97
2019-05-25T04:17:14.676Z,27.70
2019-05-25T04:19:45.120Z,25.13
2019-05-25T04:22:15.439Z,25.03
2019-05-25T04:24:45.835Z,30.83
2019-05-25T04:27:16.319Z,25.40
2019-05-25T04:29:46.709Z,30.40
2019-05-25T04:32:17.098Z,26.93
2019-05-25T04:34:47.558Z,28.65
2019-05-25T04:37:17.934Z,22.58
2019-05-25T04:39:48.415Z,25.72
2019-05-25T04:42:18.719Z,28.90
2019-05-25T04:44:49.121Z,41.58
2019-05-25T04:47:27.048Z,24.63
2019-05-25T04:49:51.490Z,20.80
2019-05-25T04:52:21.877Z,23.80
2019-05-25T04:54:52.275Z,20.70
2019-05-25T04:57:22.603Z,18.87
2019-05-25T04:59:52.988Z,19.77
2019-05-25T05:02:23.413Z,17.82
2019-05-25T05:04:53.721Z,19.67
2019-05-25T05:07:24.430Z,20.95
2019-05-25T05:10:02.565Z,23.52
2019-05-25T05:12:26.735Z,21.02
2019-05-25T05:14:58.821Z,19.87
2019-05-25T05:17:29.200Z,17.87
2019-05-25T05:19:59.576Z,16.70
2019-05-25T05:22:29.983Z,16.62
2019-05-25T05:25:01.146Z,20.77
2019-05-25T05:27:31.434Z,14.95
2019-05-25T05:30:01.697Z,19.37
2019-05-25T05:32:32.202Z,20.00
2019-05-25T05:35:02.558Z,21.90
2019-05-25T05:37:33.649Z,18.90
2019-05-25T05:40:05.033Z,23.12
2019-05-25T05:42:38.911Z,18.40
2019-05-25T05:45:09.846Z,17.27
2019-05-25T05:47:42.777Z,17.40
2019-05-25T05:50:13.906Z,15.03
2019-05-25T05:52:44.424Z,15.00
2019-05-25T05:55:17.404Z,14.18
2019-05-25T05:57:48.082Z,12.98
2019-05-25T06:00:19.624Z,20.15
2019-05-25T06:02:49.953Z,18.40
2019-05-25T06:05:20.360Z,10.48
2019-05-25T06:07:50.666Z,14.07
2019-05-25T06:10:21.464Z,14.28
2019-05-25T06:12:52.365Z,11.88
2019-05-25T06:15:22.901Z,13.28
2019-05-25T06:17:53.291Z,15.32
2019-05-25T06:20:24.357Z,13.43
2019-05-25T06:22:54.686Z,11.50
2019-05-25T06:25:25.117Z,16.77
2019-05-25T06:27:55.452Z,21.33
2019-05-25T06:30:26.104Z,19.67
2019-05-25T06:32:56.486Z,17.85
2019-05-25T06:35:26.962Z,15.75
2019-05-25T06:37:57.342Z,21.30
2019-05-25T06:40:27.694Z,16.60
2019-05-25T06:42:58.083Z,13.65
2019-05-25T06:45:28.488Z,17.02
2019-05-25T06:47:59.087Z,17.27
2019-05-25T06:50:29.584Z,15.25
2019-05-25T06:53:00.015Z,18.52
2019-05-25T06:55:30.426Z,14.47
2019-05-25T06:58:01.913Z,17.77
2019-05-25T07:00:32.321Z,10.80
2019-05-25T07:03:02.669Z,11.33
2019-05-25T07:05:33.014Z,12.15
2019-05-25T07:08:03.401Z,12.98
2019-05-25T07:10:34.156Z,12.15
2019-05-25T07:13:05.305Z,19.02
2019-05-25T07:15:35.656Z,15.28
2019-05-25T07:18:06.024Z,15.60
2019-05-25T07:20:36.379Z,13.18
2019-05-25T07:23:06.745Z,11.43
2019-05-25T07:25:37.139Z,18.52
2019-05-25T07:28:07.537Z,9.05
2019-05-25T07:30:37.880Z,12.13
2019-05-25T07:33:08.298Z,10.95
2019-05-25T07:35:38.712Z,11.70
2019-05-25T07:38:09.063Z,9.03
2019-05-25T07:40:39.422Z,9.75
2019-05-25T07:43:11.096Z,13.20
2019-05-25T07:45:41.457Z,7.47
2019-05-25T07:48:11.842Z,8.78
2019-05-25T07:50:42.084Z,12.90
2019-05-25T07:53:14.193Z,12.45
2019-05-25T07:55:44.669Z,9.80
2019-05-25T07:58:17.965Z,8.05
2019-05-25T08:00:46.921Z,13.85
2019-05-25T08:03:17.288Z,13.90
2019-05-25T08:05:48.947Z,7.58
2019-05-25T08:08:19.291Z,9.05
2019-05-25T08:10:49.636Z,9.38
2019-05-25T08:13:19.992Z,7.80
2019-05-25T08:15:51.729Z,6.50
2019-05-25T08:18:22.111Z,6.03
2019-05-25T08:20:52.488Z,7.33
2019-05-25T08:23:23.310Z,8.45
2019-05-25T08:25:53.649Z,5.45
2019-05-25T08:28:32.937Z,7.33
2019-05-25T08:30:56.540Z,5.00
2019-05-25T08:33:26.897Z,5.25
2019-05-25T08:35:57.371Z,9.10
2019-05-25T08:38:27.749Z,10.90
2019-05-25T08:40:58.141Z,6.45
2019-05-25T08:43:28.505Z,6.35
2019-05-25T08:45:58.891Z,3.98
2019-05-25T08:48:29.345Z,11.28
2019-05-25T08:50:59.879Z,8.45
2019-05-25T08:53:40.565Z,6.42
2019-05-25T08:56:02.469Z,7.78
2019-05-25T08:58:47.556Z,6.22
2019-05-25T09:01:04.930Z,7.95
2019-05-25T09:03:35.256Z,5.15
2019-05-25T09:06:05.696Z,4.35
2019-05-25T09:08:37.422Z,6.05
2019-05-25T09:11:07.804Z,5.20
2019-05-25T09:13:38.193Z,7.28
2019-05-25T09:16:08.544Z,9.90
2019-05-25T09:18:38.903Z,6.20
2019-05-25T09:21:09.341Z,12.05
2019-05-25T09:23:39.623Z,9.60
2019-05-25T09:26:13.235Z,4.55
2019-05-25T09:28:41.890Z,6.00
2019-05-25T09:31:12.217Z,5.70
2019-05-25T09:33:42.584Z,11.05
2019-05-25T09:36:14.056Z,7.95
2019-05-25T09:38:44.378Z,6.58
2019-05-25T09:41:14.779Z,8.95
2019-05-25T09:43:45.311Z,8.20
2019-05-25T09:46:16.839Z,7.22
2019-05-25T09:48:47.429Z,7.12
2019-05-25T09:51:17.819Z,6.53
2019-05-25T09:53:48.208Z,6.58
2019-05-25T09:56:18.508Z,9.10
2019-05-25T09:58:48.932Z,4.42
2019-05-25T10:01:19.280Z,7.22
2019-05-25T10:03:49.571Z,4.53
2019-05-25T10:06:20.387Z,20.02
2019-05-25T10:08:50.755Z,5.50
2019-05-25T10:11:21.176Z,4.85
2019-05-25T10:13:51.552Z,5.55
2019-05-25T10:16:21.952Z,5.92
2019-05-25T10:18:52.294Z,5.15
2019-05-25T10:21:22.670Z,6.65
2019-05-25T10:23:53.186Z,5.83
2019-05-25T10:26:23.550Z,4.67
2019-05-25T10:28:53.910Z,6.58
2019-05-25T10:31:24.296Z,6.87
2019-05-25T10:33:54.722Z,8.95
2019-05-25T10:36:25.442Z,5.28
2019-05-25T10:38:56.039Z,4.40
2019-05-25T10:41:26.634Z,10.58
2019-05-25T10:43:58.125Z,11.65
2019-05-25T10:46:28.811Z,6.45
2019-05-25T10:48:59.274Z,20.52
2019-05-25T10:51:29.571Z,9.08
2019-05-25T10:54:00.016Z,5.10
2019-05-25T10:56:30.404Z,7.83
2019-05-25T10:59:00.839Z,8.98
2019-05-25T11:01:31.270Z,8.20
2019-05-25T11:04:01.548Z,8.23
2019-05-25T11:06:34.865Z,9.05
2019-05-25T11:09:05.407Z,5.83
2019-05-25T11:11:35.783Z,8.15
2019-05-25T11:14:06.573Z,5.83
2019-05-25T11:16:36.982Z,5.28
2019-05-25T11:19:07.338Z,6.10
2019-05-25T11:21:37.716Z,8.08
2019-05-25T11:24:08.082Z,4.33
2019-05-25T11:26:38.846Z,9.10
2019-05-25T11:29:10.283Z,7.80
2019-05-25T11:31:40.623Z,4.40
2019-05-25T11:34:11.026Z,6.45
2019-05-25T11:36:41.530Z,5.58
2019-05-25T11:39:11.911Z,9.23
2019-05-25T11:41:42.307Z,6.62
2019-05-25T11:44:14.357Z,4.55
2019-05-25T11:46:44.940Z,7.37
2019-05-25T11:49:22.567Z,14.50
2019-05-25T11:51:47.475Z,7.45
2019-05-25T11:54:17.897Z,5.25
2019-05-25T11:56:48.317Z,6.83
2019-05-25T11:59:18.630Z,5.70
2019-05-25T12:01:49.084Z,6.05
2019-05-25T12:04:19.495Z,5.40
2019-05-25T12:06:49.918Z,5.47
2019-05-25T12:09:20.286Z,3.92
2019-05-25T12:11:51.291Z,4.53
2019-05-25T12:14:21.610Z,5.12
2019-05-25T12:16:52.032Z,4.47
2019-05-25T12:19:22.376Z,5.17
2019-05-25T12:21:52.759Z,4.85
2019-05-25T12:24:23.246Z,4.72
2019-05-25T12:26:53.905Z,5.75
2019-05-25T12:29:24.320Z,14.53
2019-05-25T12:32:03.631Z,5.22
2019-05-25T12:34:28.012Z,5.08
2019-05-25T12:36:58.346Z,4.33
2019-05-25T12:39:28.604Z,6.83
2019-05-25T12:41:58.964Z,13.43
2019-05-25T12:44:29.385Z,7.08
2019-05-25T12:46:59.796Z,7.25
2019-05-25T12:49:49.079Z,15.68
2019-05-25T12:52:02.088Z,7.37
2019-05-25T12:54:32.824Z,7.85
2019-05-25T12:57:03.203Z,6.97
2019-05-25T12:59:33.528Z,10.20
2019-05-25T13:02:04.078Z,10.40
2019-05-25T13:04:34.465Z,12.80
2019-05-25T13:07:04.867Z,6.75
2019-05-25T13:09:35.329Z,15.50
2019-05-25T13:12:06.076Z,9.95
2019-05-25T13:14:36.423Z,15.95
2019-05-25T13:17:06.805Z,9.55
2019-05-25T13:19:38.580Z,8.00
2019-05-25T13:22:08.920Z,18.95
2019-05-25T13:24:39.782Z,10.68
2019-05-25T13:27:10.151Z,6.20
2019-05-25T13:29:40.530Z,8.08
2019-05-25T13:32:10.962Z,9.10
2019-05-25T13:34:41.367Z,9.80
2019-05-25T13:37:12.171Z,8.18
2019-05-25T13:39:43.627Z,21.65
2019-05-25T13:42:14.026Z,12.05
2019-05-25T13:44:44.426Z,12.37
2019-05-25T13:47:14.820Z,12.15
2019-05-25T13:49:45.278Z,15.40
2019-05-25T13:52:17.139Z,13.53
2019-05-25T13:54:47.598Z,13.18
2019-05-25T13:57:18.378Z,20.77
2019-05-25T13:59:48.803Z,8.45
2019-05-25T14:02:19.195Z,11.05
2019-05-25T14:04:49.599Z,8.83
2019-05-25T14:07:19.982Z,11.63
2019-05-25T14:09:50.382Z,8.63
2019-05-25T14:12:20.747Z,10.45
2019-05-25T14:14:51.249Z,12.85
2019-05-25T14:17:21.566Z,10.23
2019-05-25T14:19:51.996Z,10.40
2019-05-25T14:22:22.467Z,12.05
2019-05-25T14:24:52.925Z,11.85
2019-05-25T14:27:23.904Z,8.08
2019-05-25T14:29:54.276Z,8.35
2019-05-25T14:32:24.730Z,14.38
2019-05-25T14:34:55.124Z,16.10
2019-05-25T14:37:25.523Z,10.53
2019-05-25T14:39:57.742Z,10.78
2019-05-25T14:42:28.080Z,12.58
2019-05-25T14:44:59.363Z,11.53
2019-05-25T14:47:29.759Z,12.40
2019-05-25T14:50:00.391Z,7.83
2019-05-25T14:52:31.153Z,9.63
2019-05-25T14:55:01.569Z,11.38
2019-05-25T14:57:31.883Z,6.42
2019-05-25T15:00:03.809Z,7.30
2019-05-25T15:02:40.324Z,5.20
2019-05-25T15:05:11.327Z,5.90
2019-05-25T15:07:41.736Z,11.05
2019-05-25T15:10:12.733Z,5.25
2019-05-25T15:12:43.123Z,13.68
2019-05-25T15:15:13.775Z,6.83
2019-05-25T15:17:44.433Z,5.30
2019-05-25T15:20:15.712Z,9.60
2019-05-25T15:22:47.025Z,7.53
2019-05-25T15:25:18.172Z,10.80
2019-05-25T15:27:48.633Z,7.60
2019-05-25T15:30:19.377Z,7.55
2019-05-25T15:32:49.779Z,7.15
2019-05-25T15:35:20.926Z,4.58
2019-05-25T15:37:51.497Z,29.23
2019-05-25T15:40:22.151Z,5.03
2019-05-25T15:42:52.457Z,5.37
2019-05-25T15:45:22.925Z,4.60
2019-05-25T15:47:53.395Z,4.47
2019-05-25T15:50:24.491Z,11.65
2019-05-25T15:52:56.745Z,4.33
2019-05-25T15:55:26.867Z,7.60
2019-05-25T15:57:57.337Z,8.68
2019-05-25T16:00:52.122Z,7.40
2019-05-25T16:03:22.974Z,2.80
2019-05-25T16:05:53.655Z,3.20
2019-05-25T16:08:23.985Z,25.40
2019-05-25T16:10:54.335Z,7.42
2019-05-25T16:13:24.679Z,3.72
2019-05-25T16:15:55.079Z,40.20
2019-05-25T16:18:25.467Z,12.25
2019-05-25T16:20:55.788Z,33.48
2019-05-25T16:23:26.110Z,6.97
2019-05-25T16:25:56.497Z,5.25
2019-05-25T16:28:26.891Z,4.72
2019-05-25T16:30:57.235Z,4.85
2019-05-25T16:33:27.749Z,9.10
2019-05-25T16:35:58.338Z,5.40
2019-05-25T16:38:28.735Z,3.85
2019-05-25T16:40:59.125Z,4.78
2019-05-25T16:43:29.521Z,5.50
2019-05-25T16:45:59.853Z,22.52
2019-05-25T16:48:30.255Z,5.42
2019-05-25T16:51:00.995Z,4.83
2019-05-25T16:53:31.306Z,4.35
2019-05-25T16:56:03.110Z,7.55
2019-05-25T16:58:33.507Z,3.95
2019-05-25T17:01:03.837Z,8.58
2019-05-25T17:03:34.505Z,5.47
2019-05-25T17:06:04.968Z,8.23
2019-05-25T17:08:35.403Z,26.80
2019-05-25T17:11:05.791Z,9.95
2019-05-25T17:13:36.313Z,6.35
2019-05-25T17:16:06.725Z,7.37
2019-05-25T17:18:37.075Z,9.43
2019-05-25T17:21:07.519Z,5.78
2019-05-25T17:23:38.922Z,3.55
2019-05-25T17:26:09.414Z,13.95
2019-05-25T17:28:39.779Z,8.55
2019-05-25T17:31:10.109Z,12.18
2019-05-25T17:33:45.915Z,6.92
2019-05-25T17:36:13.322Z,4.33
2019-05-25T17:38:43.754Z,5.37
2019-05-25T17:41:14.072Z,5.12
2019-05-25T17:43:44.771Z,8.83
2019-05-25T17:46:15.098Z,8.43
2019-05-25T17:48:48.275Z,7.22
2019-05-25T17:51:18.651Z,4.85
2019-05-25T17:53:49.216Z,8.05
2019-05-25T17:56:19.468Z,13.05
2019-05-25T17:58:50.005Z,8.68
2019-05-25T18:01:21.605Z,6.72
2019-05-25T18:04:05.635Z,8.88
2019-05-25T18:06:24.091Z,56.92
2019-05-25T18:08:54.487Z,7.33
2019-05-25T18:11:25.248Z,9.83
2019-05-25T18:13:55.695Z,4.65
2019-05-25T18:16:26.027Z,6.28
2019-05-25T18:18:56.579Z,5.65
2019-05-25T18:21:26.912Z,5.05
2019-05-25T18:23:57.200Z,2.98
2019-05-25T18:26:27.746Z,7.60
2019-05-25T18:28:58.732Z,5.85
2019-05-25T18:31:29.080Z,4.60
2019-05-25T18:33:59.535Z,7.20
2019-05-25T18:36:29.886Z,11.28
2019-05-25T18:39:00.168Z,10.93
2019-05-25T18:41:30.632Z,5.47
2019-05-25T18:44:04.064Z,5.58
2019-05-25T18:46:34.437Z,7.58
2019-05-25T18:49:04.841Z,10.45
2019-05-25T18:51:35.568Z,10.38
2019-05-25T18:54:06.079Z,6.70
2019-05-25T18:56:38.434Z,5.37
2019-05-25T18:59:10.204Z,8.18
2019-05-25T19:01:40.586Z,5.87
2019-05-25T19:04:10.966Z,9.48
2019-05-25T19:06:41.826Z,16.90
2019-05-25T19:09:12.193Z,4.72
2019-05-25T19:11:42.570Z,8.53
2019-05-25T19:14:13.035Z,4.00
2019-05-25T19:16:43.549Z,10.18
2019-05-25T19:19:13.924Z,10.10
2019-05-25T19:21:44.303Z,6.10
2019-05-25T19:24:14.770Z,7.53
2019-05-25T19:26:45.207Z,11.70
2019-05-25T19:29:15.625Z,9.73
2019-05-25T19:31:45.942Z,8.70
2019-05-25T19:34:16.357Z,8.33
2019-05-25T19:36:46.901Z,11.30
2019-05-25T19:39:17.195Z,5.77
2019-05-25T19:41:47.551Z,7.83
2019-05-25T19:44:17.911Z,8.73
2019-05-25T19:46:48.293Z,9.37
2019-05-25T19:49:18.675Z,9.57
2019-05-25T19:51:49.115Z,9.63
2019-05-25T19:54:19.545Z,8.37
2019-05-25T19:56:50.122Z,9.53
2019-05-25T19:59:20.613Z,14.73
2019-05-25T20:01:51.021Z,11.87
2019-05-25T20:04:21.391Z,14.03
2019-05-25T20:06:51.801Z,8.97
2019-05-25T20:09:22.109Z,10.60
2019-05-25T20:11:52.475Z,8.23
2019-05-25T20:14:22.795Z,11.93
2019-05-25T20:16:53.186Z,7.47
2019-05-25T20:19:23.484Z,9.20
2019-05-25T20:21:53.894Z,10.37
2019-05-25T20:24:24.573Z,14.87
2019-05-25T20:26:54.917Z,21.33
2019-05-25T20:29:25.338Z,16.37
2019-05-25T20:31:55.705Z,11.03
2019-05-25T20:34:26.046Z,9.07
2019-05-25T20:36:56.419Z,11.10
2019-05-25T20:39:26.804Z,13.57
2019-05-25T20:41:58.297Z,12.80
2019-05-25T20:44:28.673Z,8.10
2019-05-25T20:46:59.097Z,20.70
2019-05-25T20:49:29.668Z,7.20
2019-05-25T20:52:00.237Z,7.93
2019-05-25T20:54:30.704Z,9.53
2019-05-25T20:57:01.146Z,21.53
2019-05-25T20:59:32.692Z,9.30
2019-05-25T21:02:03.139Z,11.90
2019-05-25T21:04:33.594Z,13.47
2019-05-25T21:07:03.994Z,10.27
2019-05-25T21:09:34.421Z,10.53
2019-05-25T21:12:05.008Z,8.80
2019-05-25T21:14:35.394Z,9.83
2019-05-25T21:17:05.772Z,9.37
2019-05-25T21:19:37.187Z,8.80
2019-05-25T21:22:07.546Z,11.37
2019-05-25T21:24:37.888Z,8.67
2019-05-25T21:27:08.262Z,8.30
2019-05-25T21:29:38.622Z,16.40
2019-05-25T21:32:09.028Z,14.70
2019-05-25T21:34:39.515Z,9.77
2019-05-25T21:37:09.908Z,11.43
2019-05-25T21:39:40.220Z,9.33
2019-05-25T21:42:10.668Z,9.43
2019-05-25T21:44:41.028Z,11.57
2019-05-25T21:47:11.508Z,14.60
2019-05-25T21:49:41.746Z,23.00
2019-05-25T21:52:12.298Z,13.20
2019-05-25T21:54:42.660Z,9.70
2019-05-25T21:57:13.111Z,12.37
2019-05-25T21:59:43.528Z,12.70
2019-05-25T22:02:14.155Z,9.90
2019-05-25T22:04:44.644Z,15.40
2019-05-25T22:07:15.008Z,7.73
2019-05-25T22:09:45.456Z,11.23
2019-05-25T22:12:15.883Z,10.87
2019-05-25T22:14:46.292Z,15.30
2019-05-25T22:17:16.658Z,10.30
2019-05-25T22:19:47.092Z,11.43
2019-05-25T22:22:18.668Z,15.70
2019-05-25T22:24:49.068Z,12.57
2019-05-25T22:27:19.456Z,22.43
2019-05-25T22:29:49.853Z,13.67
2019-05-25T22:32:21.298Z,11.23
2019-05-25T22:34:51.714Z,12.30
2019-05-25T22:37:22.100Z,11.87
2019-05-25T22:39:52.502Z,15.10
2019-05-25T22:42:22.898Z,13.33
2019-05-25T22:44:53.371Z,11.37
2019-05-25T22:47:23.707Z,9.27
2019-05-25T22:49:54.091Z,13.53
2019-05-25T22:52:24.482Z,13.13
2019-05-25T22:54:55.119Z,21.73
2019-05-25T22:57:25.542Z,15.63
2019-05-25T22:59:55.910Z,14.20
2019-05-25T23:02:26.319Z,18.80
2019-05-25T23:04:56.712Z,13.07
2019-05-25T23:07:27.130Z,13.60
2019-05-25T23:09:57.466Z,14.77
2019-05-25T23:12:28.158Z,14.70
2019-05-25T23:14:58.507Z,13.90
2019-05-25T23:17:28.862Z,15.37
2019-05-25T23:19:59.213Z,10.77
2019-05-25T23:22:29.609Z,13.10
2019-05-25T23:24:59.966Z,15.17
2019-05-25T23:27:30.403Z,13.03
2019-05-25T23:30:00.764Z,12.03
2019-05-25T23:32:31.153Z,13.50
2019-05-25T23:35:01.588Z,27.83
2019-05-25T23:37:33.497Z,12.07
2019-05-25T23:40:05.284Z,14.93
2019-05-25T23:42:35.694Z,16.07
2019-05-25T23:45:07.289Z,12.70
2019-05-25T23:47:37.723Z,14.60
2019-05-25T23:50:09.315Z,18.97
2019-05-25T23:52:40.066Z,13.37
2019-05-25T23:55:10.802Z,17.57
2019-05-25T23:57:41.356Z,14.30
